Macdill AFB, Florida
Current Conditions -  °F | °C
As of 9:58 PM on Friday 21 Nov 2014 (Local Time) from KMCF Reporting Station
Scattered Clouds Scattered Clouds  
Wind Chill: 65°   Ceiling: Unl
Heat Index: 65°   Visibility: 10mi
Dew Point: 56°   Wind: 14mph
Humidity: 74%   Direction: 70°ENE
Pressure: 30.25"   Gusts: NA
Location:  27.8467°N, 82.5182°W
Report Text: KMCF 220258Z AUTO 07012KT 10SM SCT080 18/14 A3025 RMK AO2 SLP247 T01820136 51005
Loading
Personal Weather Stations






























Interactive Weather Map New forecast layout! Learn more

10-Day Weather Forecast

Advertisements
Track Severe Weather on mobile